sensor_id;sensor_type;location;lat;lon;timestamp;P1;durP1;ratioP1;P2;durP2;ratioP2
10335;SDS011;5213;53.548;9.930;2022-08-14T00:00:59;5.47;;;3.40;;
10335;SDS011;5213;53.548;9.930;2022-08-14T00:03:27;3.72;;;3.42;;
10335;SDS011;5213;53.548;9.930;2022-08-14T00:05:55;5.05;;;3.67;;
10335;SDS011;5213;53.548;9.930;2022-08-14T00:08:21;3.70;;;3.40;;
10335;SDS011;5213;53.548;9.930;2022-08-14T00:10:47;3.22;;;2.90;;
10335;SDS011;5213;53.548;9.930;2022-08-14T00:13:14;5.22;;;3.60;;
10335;SDS011;5213;53.548;9.930;2022-08-14T00:15:42;3.65;;;3.35;;
10335;SDS011;5213;53.548;9.930;2022-08-14T00:18:09;3.17;;;2.97;;
10335;SDS011;5213;53.548;9.930;2022-08-14T00:20:36;7.32;;;3.10;;
10335;SDS011;5213;53.548;9.930;2022-08-14T00:23:04;3.28;;;3.00;;
10335;SDS011;5213;53.548;9.930;2022-08-14T00:25:30;3.65;;;3.30;;
10335;SDS011;5213;53.548;9.930;2022-08-14T00:27:56;3.30;;;3.00;;
10335;SDS011;5213;53.548;9.930;2022-08-14T00:30:22;4.20;;;3.13;;
10335;SDS011;5213;53.548;9.930;2022-08-14T00:32:49;4.78;;;3.30;;
10335;SDS011;5213;53.548;9.930;2022-08-14T00:35:15;6.53;;;3.00;;
10335;SDS011;5213;53.548;9.930;2022-08-14T00:37:42;3.13;;;2.90;;
10335;SDS011;5213;53.548;9.930;2022-08-14T00:40:09;3.15;;;2.90;;
10335;SDS011;5213;53.548;9.930;2022-08-14T00:42:36;3.35;;;2.80;;
10335;SDS011;5213;53.548;9.930;2022-08-14T00:45:03;4.70;;;2.95;;
10335;SDS011;5213;53.548;9.930;2022-08-14T00:47:29;2.88;;;2.67;;
10335;SDS011;5213;53.548;9.930;2022-08-14T00:49:55;3.05;;;2.85;;
10335;SDS011;5213;53.548;9.930;2022-08-14T00:52:21;2.97;;;2.78;;
10335;SDS011;5213;53.548;9.930;2022-08-14T00:54:48;3.58;;;2.85;;
10335;SDS011;5213;53.548;9.930;2022-08-14T00:57:17;2.83;;;2.67;;
10335;SDS011;5213;53.548;9.930;2022-08-14T00:59:43;3.35;;;2.75;;
10335;SDS011;5213;53.548;9.930;2022-08-14T01:02:09;3.08;;;2.78;;
10335;SDS011;5213;53.548;9.930;2022-08-14T01:04:37;5.55;;;2.80;;
10335;SDS011;5213;53.548;9.930;2022-08-14T01:07:03;3.38;;;2.80;;
10335;SDS011;5213;53.548;9.930;2022-08-14T01:09:31;3.13;;;2.85;;
10335;SDS011;5213;53.548;9.930;2022-08-14T01:11:58;3.17;;;2.83;;
10335;SDS011;5213;53.548;9.930;2022-08-14T01:14:25;4.20;;;2.90;;
10335;SDS011;5213;53.548;9.930;2022-08-14T01:16:51;4.15;;;3.00;;
10335;SDS011;5213;53.548;9.930;2022-08-14T01:19:17;3.55;;;3.17;;
10335;SDS011;5213;53.548;9.930;2022-08-14T01:22:02;3.65;;;3.35;;
10335;SDS011;5213;53.548;9.930;2022-08-14T01:24:29;3.40;;;3.13;;
10335;SDS011;5213;53.548;9.930;2022-08-14T01:26:55;5.38;;;4.00;;
10335;SDS011;5213;53.548;9.930;2022-08-14T01:29:23;5.07;;;4.68;;
10335;SDS011;5213;53.548;9.930;2022-08-14T01:31:50;4.55;;;3.83;;
10335;SDS011;5213;53.548;9.930;2022-08-14T01:34:17;3.55;;;3.25;;
10335;SDS011;5213;53.548;9.930;2022-08-14T01:36:50;4.75;;;3.35;;
10335;SDS011;5213;53.548;9.930;2022-08-14T01:39:17;3.40;;;3.20;;
10335;SDS011;5213;53.548;9.930;2022-08-14T01:41:45;3.15;;;2.85;;
10335;SDS011;5213;53.548;9.930;2022-08-14T01:44:16;3.83;;;3.30;;
10335;SDS011;5213;53.548;9.930;2022-08-14T01:46:42;3.28;;;2.90;;
10335;SDS011;5213;53.548;9.930;2022-08-14T01:49:10;3.45;;;3.20;;
10335;SDS011;5213;53.548;9.930;2022-08-14T01:51:38;4.68;;;3.10;;
10335;SDS011;5213;53.548;9.930;2022-08-14T01:54:06;4.55;;;3.17;;
10335;SDS011;5213;53.548;9.930;2022-08-14T01:56:33;3.10;;;2.90;;
10335;SDS011;5213;53.548;9.930;2022-08-14T01:59:07;3.20;;;2.90;;
10335;SDS011;5213;53.548;9.930;2022-08-14T02:01:34;3.28;;;2.97;;
10335;SDS011;5213;53.548;9.930;2022-08-14T02:04:02;5.47;;;2.95;;
10335;SDS011;5213;53.548;9.930;2022-08-14T02:06:29;5.20;;;2.97;;
10335;SDS011;5213;53.548;9.930;2022-08-14T02:08:55;3.28;;;2.97;;
10335;SDS011;5213;53.548;9.930;2022-08-14T02:11:22;3.35;;;3.10;;
10335;SDS011;5213;53.548;9.930;2022-08-14T02:16:15;3.50;;;3.20;;
10335;SDS011;5213;53.548;9.930;2022-08-14T02:18:42;3.75;;;3.28;;
10335;SDS011;5213;53.548;9.930;2022-08-14T02:21:10;3.45;;;2.92;;
10335;SDS011;5213;53.548;9.930;2022-08-14T02:23:36;4.72;;;3.28;;
10335;SDS011;5213;53.548;9.930;2022-08-14T02:26:12;4.22;;;3.20;;
10335;SDS011;5213;53.548;9.930;2022-08-14T02:28:38;3.50;;;3.20;;
10335;SDS011;5213;53.548;9.930;2022-08-14T02:31:04;3.55;;;3.25;;
10335;SDS011;5213;53.548;9.930;2022-08-14T02:33:32;5.50;;;3.50;;
10335;SDS011;5213;53.548;9.930;2022-08-14T02:35:59;3.45;;;3.10;;
10335;SDS011;5213;53.548;9.930;2022-08-14T02:38:27;5.97;;;3.38;;
10335;SDS011;5213;53.548;9.930;2022-08-14T02:40:54;3.33;;;3.03;;
10335;SDS011;5213;53.548;9.930;2022-08-14T02:43:21;6.50;;;3.03;;
10335;SDS011;5213;53.548;9.930;2022-08-14T02:45:48;3.17;;;2.97;;
10335;SDS011;5213;53.548;9.930;2022-08-14T02:48:14;4.97;;;3.22;;
10335;SDS011;5213;53.548;9.930;2022-08-14T02:50:40;7.53;;;3.45;;
10335;SDS011;5213;53.548;9.930;2022-08-14T02:53:08;4.07;;;3.03;;
10335;SDS011;5213;53.548;9.930;2022-08-14T02:55:35;3.20;;;2.90;;
10335;SDS011;5213;53.548;9.930;2022-08-14T02:58:04;3.97;;;2.88;;
10335;SDS011;5213;53.548;9.930;2022-08-14T03:00:31;5.75;;;3.00;;
10335;SDS011;5213;53.548;9.930;2022-08-14T03:02:59;6.05;;;3.00;;
10335;SDS011;5213;53.548;9.930;2022-08-14T03:05:26;3.42;;;3.03;;
10335;SDS011;5213;53.548;9.930;2022-08-14T03:08:02;4.38;;;3.03;;
10335;SDS011;5213;53.548;9.930;2022-08-14T03:10:28;3.15;;;2.90;;
10335;SDS011;5213;53.548;9.930;2022-08-14T03:12:54;2.95;;;2.70;;
10335;SDS011;5213;53.548;9.930;2022-08-14T03:15:21;4.35;;;3.03;;
10335;SDS011;5213;53.548;9.930;2022-08-14T03:17:47;4.70;;;3.35;;
10335;SDS011;5213;53.548;9.930;2022-08-14T03:20:17;3.55;;;3.25;;
10335;SDS011;5213;53.548;9.930;2022-08-14T03:22:43;6.05;;;3.60;;
10335;SDS011;5213;53.548;9.930;2022-08-14T03:25:10;4.95;;;3.60;;
10335;SDS011;5213;53.548;9.930;2022-08-14T03:27:36;7.88;;;4.00;;
10335;SDS011;5213;53.548;9.930;2022-08-14T03:30:02;3.83;;;3.47;;
10335;SDS011;5213;53.548;9.930;2022-08-14T03:32:29;4.18;;;3.53;;
10335;SDS011;5213;53.548;9.930;2022-08-14T03:34:57;4.30;;;3.08;;
10335;SDS011;5213;53.548;9.930;2022-08-14T03:37:23;3.97;;;3.40;;
10335;SDS011;5213;53.548;9.930;2022-08-14T03:39:51;4.18;;;3.65;;
10335;SDS011;5213;53.548;9.930;2022-08-14T03:42:17;3.58;;;3.30;;
10335;SDS011;5213;53.548;9.930;2022-08-14T03:44:43;3.33;;;3.03;;
10335;SDS011;5213;53.548;9.930;2022-08-14T03:47:10;4.22;;;3.50;;
10335;SDS011;5213;53.548;9.930;2022-08-14T03:49:36;4.82;;;3.63;;
10335;SDS011;5213;53.548;9.930;2022-08-14T03:52:04;3.53;;;3.10;;
10335;SDS011;5213;53.548;9.930;2022-08-14T03:54:30;3.60;;;3.10;;
10335;SDS011;5213;53.548;9.930;2022-08-14T03:57:00;3.20;;;2.78;;
10335;SDS011;5213;53.548;9.930;2022-08-14T03:59:26;4.07;;;3.22;;
10335;SDS011;5213;53.548;9.930;2022-08-14T04:01:52;5.03;;;3.28;;
10335;SDS011;5213;53.548;9.930;2022-08-14T04:04:18;3.45;;;3.15;;
10335;SDS011;5213;53.548;9.930;2022-08-14T04:06:44;3.00;;;2.80;;
10335;SDS011;5213;53.548;9.930;2022-08-14T04:09:10;5.22;;;3.08;;
10335;SDS011;5213;53.548;9.930;2022-08-14T04:11:36;9.65;;;3.17;;
10335;SDS011;5213;53.548;9.930;2022-08-14T04:14:03;6.70;;;3.58;;
10335;SDS011;5213;53.548;9.930;2022-08-14T04:16:30;3.65;;;3.25;;
10335;SDS011;5213;53.548;9.930;2022-08-14T04:18:57;5.55;;;3.20;;
10335;SDS011;5213;53.548;9.930;2022-08-14T04:21:24;3.25;;;2.95;;
10335;SDS011;5213;53.548;9.930;2022-08-14T04:23:53;5.95;;;3.40;;
10335;SDS011;5213;53.548;9.930;2022-08-14T04:26:19;4.40;;;3.30;;
10335;SDS011;5213;53.548;9.930;2022-08-14T04:28:47;3.67;;;3.30;;
10335;SDS011;5213;53.548;9.930;2022-08-14T04:31:13;3.60;;;3.20;;
10335;SDS011;5213;53.548;9.930;2022-08-14T04:33:39;6.10;;;3.10;;
10335;SDS011;5213;53.548;9.930;2022-08-14T04:36:06;4.68;;;3.00;;
10335;SDS011;5213;53.548;9.930;2022-08-14T04:38:32;5.60;;;3.00;;
10335;SDS011;5213;53.548;9.930;2022-08-14T04:41:17;3.20;;;3.00;;
10335;SDS011;5213;53.548;9.930;2022-08-14T04:44:02;3.55;;;3.05;;
10335;SDS011;5213;53.548;9.930;2022-08-14T04:46:29;4.15;;;3.03;;
10335;SDS011;5213;53.548;9.930;2022-08-14T04:48:55;4.20;;;3.10;;
10335;SDS011;5213;53.548;9.930;2022-08-14T04:51:21;5.80;;;2.90;;
10335;SDS011;5213;53.548;9.930;2022-08-14T04:53:52;5.80;;;3.15;;
10335;SDS011;5213;53.548;9.930;2022-08-14T04:56:20;2.88;;;2.67;;
10335;SDS011;5213;53.548;9.930;2022-08-14T04:58:51;5.20;;;2.90;;
10335;SDS011;5213;53.548;9.930;2022-08-14T05:01:21;6.95;;;2.97;;
10335;SDS011;5213;53.548;9.930;2022-08-14T05:03:48;3.20;;;2.92;;
10335;SDS011;5213;53.548;9.930;2022-08-14T05:06:14;3.75;;;2.75;;
10335;SDS011;5213;53.548;9.930;2022-08-14T05:08:40;6.18;;;3.05;;
10335;SDS011;5213;53.548;9.930;2022-08-14T05:11:07;4.18;;;2.90;;
10335;SDS011;5213;53.548;9.930;2022-08-14T05:13:34;4.15;;;2.88;;
10335;SDS011;5213;53.548;9.930;2022-08-14T05:16:01;3.33;;;2.83;;
10335;SDS011;5213;53.548;9.930;2022-08-14T05:18:29;3.33;;;2.88;;
10335;SDS011;5213;53.548;9.930;2022-08-14T05:20:56;4.75;;;2.95;;
10335;SDS011;5213;53.548;9.930;2022-08-14T05:23:24;4.93;;;2.85;;
10335;SDS011;5213;53.548;9.930;2022-08-14T05:25:51;5.40;;;3.00;;
10335;SDS011;5213;53.548;9.930;2022-08-14T05:28:28;4.47;;;2.78;;
10335;SDS011;5213;53.548;9.930;2022-08-14T05:30:56;3.30;;;3.00;;
10335;SDS011;5213;53.548;9.930;2022-08-14T05:33:23;5.63;;;3.30;;
10335;SDS011;5213;53.548;9.930;2022-08-14T05:35:50;4.82;;;2.90;;
10335;SDS011;5213;53.548;9.930;2022-08-14T05:38:17;5.30;;;3.42;;
10335;SDS011;5213;53.548;9.930;2022-08-14T05:40:44;3.13;;;2.92;;
10335;SDS011;5213;53.548;9.930;2022-08-14T05:43:11;7.03;;;3.05;;
10335;SDS011;5213;53.548;9.930;2022-08-14T05:45:38;3.40;;;3.10;;
10335;SDS011;5213;53.548;9.930;2022-08-14T05:48:04;4.85;;;3.25;;
10335;SDS011;5213;53.548;9.930;2022-08-14T05:50:32;6.47;;;3.08;;
10335;SDS011;5213;53.548;9.930;2022-08-14T05:52:59;5.80;;;3.30;;
10335;SDS011;5213;53.548;9.930;2022-08-14T05:55:25;3.97;;;3.10;;
10335;SDS011;5213;53.548;9.930;2022-08-14T05:57:52;5.45;;;2.83;;
10335;SDS011;5213;53.548;9.930;2022-08-14T06:00:19;4.30;;;3.00;;
10335;SDS011;5213;53.548;9.930;2022-08-14T06:02:45;4.28;;;2.97;;
10335;SDS011;5213;53.548;9.930;2022-08-14T06:05:12;3.95;;;3.03;;
10335;SDS011;5213;53.548;9.930;2022-08-14T06:07:38;4.13;;;2.90;;
10335;SDS011;5213;53.548;9.930;2022-08-14T06:10:05;4.75;;;3.25;;
10335;SDS011;5213;53.548;9.930;2022-08-14T06:12:32;5.38;;;2.85;;
10335;SDS011;5213;53.548;9.930;2022-08-14T06:14:59;4.85;;;3.38;;
10335;SDS011;5213;53.548;9.930;2022-08-14T06:17:25;4.43;;;3.20;;
10335;SDS011;5213;53.548;9.930;2022-08-14T06:19:51;5.63;;;3.15;;
10335;SDS011;5213;53.548;9.930;2022-08-14T06:22:18;5.57;;;3.30;;
10335;SDS011;5213;53.548;9.930;2022-08-14T06:24:44;3.22;;;2.85;;
10335;SDS011;5213;53.548;9.930;2022-08-14T06:27:10;3.38;;;2.90;;
10335;SDS011;5213;53.548;9.930;2022-08-14T06:29:36;7.53;;;3.10;;
10335;SDS011;5213;53.548;9.930;2022-08-14T06:32:03;4.40;;;2.90;;
10335;SDS011;5213;53.548;9.930;2022-08-14T06:34:29;5.72;;;3.00;;
10335;SDS011;5213;53.548;9.930;2022-08-14T06:36:55;5.00;;;3.03;;
10335;SDS011;5213;53.548;9.930;2022-08-14T06:39:22;3.15;;;2.92;;
10335;SDS011;5213;53.548;9.930;2022-08-14T06:41:48;3.58;;;3.08;;
10335;SDS011;5213;53.548;9.930;2022-08-14T06:44:14;6.15;;;3.50;;
10335;SDS011;5213;53.548;9.930;2022-08-14T06:46:40;7.05;;;2.85;;
10335;SDS011;5213;53.548;9.930;2022-08-14T06:49:06;4.32;;;3.17;;
10335;SDS011;5213;53.548;9.930;2022-08-14T06:51:32;4.80;;;3.03;;
10335;SDS011;5213;53.548;9.930;2022-08-14T06:53:59;4.53;;;3.10;;
10335;SDS011;5213;53.548;9.930;2022-08-14T06:56:25;6.10;;;3.45;;
10335;SDS011;5213;53.548;9.930;2022-08-14T06:58:51;5.63;;;3.38;;
10335;SDS011;5213;53.548;9.930;2022-08-14T07:01:17;4.40;;;3.00;;
10335;SDS011;5213;53.548;9.930;2022-08-14T07:04:02;13.77;;;3.33;;
10335;SDS011;5213;53.548;9.930;2022-08-14T07:06:46;4.43;;;2.90;;
10335;SDS011;5213;53.548;9.930;2022-08-14T07:09:13;4.78;;;3.08;;
10335;SDS011;5213;53.548;9.930;2022-08-14T07:11:39;5.43;;;3.13;;
10335;SDS011;5213;53.548;9.930;2022-08-14T07:14:06;5.30;;;3.20;;
10335;SDS011;5213;53.548;9.930;2022-08-14T07:16:32;4.80;;;3.50;;
10335;SDS011;5213;53.548;9.930;2022-08-14T07:18:58;5.25;;;3.45;;
10335;SDS011;5213;53.548;9.930;2022-08-14T07:21:24;5.05;;;3.60;;
10335;SDS011;5213;53.548;9.930;2022-08-14T07:23:50;4.03;;;3.35;;
10335;SDS011;5213;53.548;9.930;2022-08-14T07:26:16;4.85;;;3.60;;
10335;SDS011;5213;53.548;9.930;2022-08-14T07:28:43;7.65;;;3.70;;
10335;SDS011;5213;53.548;9.930;2022-08-14T07:31:09;4.13;;;3.30;;
10335;SDS011;5213;53.548;9.930;2022-08-14T07:33:40;5.63;;;3.58;;
10335;SDS011;5213;53.548;9.930;2022-08-14T07:36:07;5.25;;;3.28;;
10335;SDS011;5213;53.548;9.930;2022-08-14T07:38:34;7.03;;;3.38;;
10335;SDS011;5213;53.548;9.930;2022-08-14T07:41:00;3.33;;;3.03;;
10335;SDS011;5213;53.548;9.930;2022-08-14T07:43:27;4.38;;;3.10;;
10335;SDS011;5213;53.548;9.930;2022-08-14T07:45:53;5.13;;;3.20;;
10335;SDS011;5213;53.548;9.930;2022-08-14T07:48:20;6.38;;;3.30;;
10335;SDS011;5213;53.548;9.930;2022-08-14T07:50:46;4.10;;;3.40;;
10335;SDS011;5213;53.548;9.930;2022-08-14T07:53:14;6.32;;;3.13;;
10335;SDS011;5213;53.548;9.930;2022-08-14T07:55:41;3.75;;;3.33;;
10335;SDS011;5213;53.548;9.930;2022-08-14T07:58:07;6.18;;;3.30;;
10335;SDS011;5213;53.548;9.930;2022-08-14T08:00:34;6.38;;;3.22;;
10335;SDS011;5213;53.548;9.930;2022-08-14T08:03:00;3.05;;;2.85;;
10335;SDS011;5213;53.548;9.930;2022-08-14T08:05:27;7.25;;;3.67;;
10335;SDS011;5213;53.548;9.930;2022-08-14T08:07:53;5.03;;;3.10;;
10335;SDS011;5213;53.548;9.930;2022-08-14T08:10:21;4.28;;;3.15;;
10335;SDS011;5213;53.548;9.930;2022-08-14T08:15:26;6.22;;;3.22;;
10335;SDS011;5213;53.548;9.930;2022-08-14T08:17:52;8.93;;;3.22;;
10335;SDS011;5213;53.548;9.930;2022-08-14T08:20:20;4.50;;;2.90;;
10335;SDS011;5213;53.548;9.930;2022-08-14T08:22:47;10.52;;;3.33;;
10335;SDS011;5213;53.548;9.930;2022-08-14T08:25:15;4.90;;;3.13;;
10335;SDS011;5213;53.548;9.930;2022-08-14T08:27:41;5.88;;;3.22;;
10335;SDS011;5213;53.548;9.930;2022-08-14T08:30:08;6.70;;;3.47;;
10335;SDS011;5213;53.548;9.930;2022-08-14T08:32:41;5.03;;;2.97;;
10335;SDS011;5213;53.548;9.930;2022-08-14T08:35:24;3.45;;;3.17;;
10335;SDS011;5213;53.548;9.930;2022-08-14T08:37:50;4.35;;;3.30;;
10335;SDS011;5213;53.548;9.930;2022-08-14T08:40:24;3.40;;;3.10;;
10335;SDS011;5213;53.548;9.930;2022-08-14T08:42:50;3.60;;;3.30;;
10335;SDS011;5213;53.548;9.930;2022-08-14T08:45:17;3.75;;;3.30;;
10335;SDS011;5213;53.548;9.930;2022-08-14T08:47:43;3.35;;;3.05;;
10335;SDS011;5213;53.548;9.930;2022-08-14T08:50:26;6.28;;;2.92;;
10335;SDS011;5213;53.548;9.930;2022-08-14T08:52:54;4.75;;;3.08;;
10335;SDS011;5213;53.548;9.930;2022-08-14T08:55:54;4.57;;;3.20;;
10335;SDS011;5213;53.548;9.930;2022-08-14T08:58:17;4.07;;;3.25;;
10335;SDS011;5213;53.548;9.930;2022-08-14T09:00:48;4.97;;;3.40;;
10335;SDS011;5213;53.548;9.930;2022-08-14T09:03:17;4.68;;;3.20;;
10335;SDS011;5213;53.548;9.930;2022-08-14T09:05:52;7.57;;;3.50;;
10335;SDS011;5213;53.548;9.930;2022-08-14T09:08:23;3.90;;;3.50;;
10335;SDS011;5213;53.548;9.930;2022-08-14T09:10:52;4.78;;;3.50;;
10335;SDS011;5213;53.548;9.930;2022-08-14T09:13:19;4.70;;;3.33;;
10335;SDS011;5213;53.548;9.930;2022-08-14T09:15:47;5.10;;;3.38;;
10335;SDS011;5213;53.548;9.930;2022-08-14T09:18:14;4.32;;;3.35;;
10335;SDS011;5213;53.548;9.930;2022-08-14T09:20:42;3.60;;;3.30;;
10335;SDS011;5213;53.548;9.930;2022-08-14T09:23:08;5.65;;;3.30;;
10335;SDS011;5213;53.548;9.930;2022-08-14T09:25:35;5.45;;;3.50;;
10335;SDS011;5213;53.548;9.930;2022-08-14T09:28:02;3.70;;;3.40;;
10335;SDS011;5213;53.548;9.930;2022-08-14T09:30:29;7.15;;;3.40;;
10335;SDS011;5213;53.548;9.930;2022-08-14T09:33:03;4.32;;;3.42;;
10335;SDS011;5213;53.548;9.930;2022-08-14T09:38:06;3.65;;;3.25;;
10335;SDS011;5213;53.548;9.930;2022-08-14T09:40:46;7.07;;;3.60;;
10335;SDS011;5213;53.548;9.930;2022-08-14T09:43:24;4.68;;;3.78;;
10335;SDS011;5213;53.548;9.930;2022-08-14T09:45:54;5.55;;;3.60;;
10335;SDS011;5213;53.548;9.930;2022-08-14T09:48:23;6.68;;;3.40;;
10335;SDS011;5213;53.548;9.930;2022-08-14T09:50:50;5.60;;;4.07;;
10335;SDS011;5213;53.548;9.930;2022-08-14T09:53:37;4.75;;;3.90;;
10335;SDS011;5213;53.548;9.930;2022-08-14T09:56:06;5.55;;;3.85;;
10335;SDS011;5213;53.548;9.930;2022-08-14T09:58:34;6.00;;;3.60;;
10335;SDS011;5213;53.548;9.930;2022-08-14T10:01:06;4.38;;;3.90;;
10335;SDS011;5213;53.548;9.930;2022-08-14T10:03:33;4.60;;;3.90;;
10335;SDS011;5213;53.548;9.930;2022-08-14T10:06:07;4.55;;;3.95;;
10335;SDS011;5213;53.548;9.930;2022-08-14T10:08:47;5.95;;;4.25;;
10335;SDS011;5213;53.548;9.930;2022-08-14T10:13:47;6.40;;;4.63;;
10335;SDS011;5213;53.548;9.930;2022-08-14T10:16:17;6.72;;;4.47;;
10335;SDS011;5213;53.548;9.930;2022-08-14T10:18:44;6.50;;;4.47;;
10335;SDS011;5213;53.548;9.930;2022-08-14T10:21:15;6.38;;;4.22;;
10335;SDS011;5213;53.548;9.930;2022-08-14T10:23:46;4.90;;;4.00;;
10335;SDS011;5213;53.548;9.930;2022-08-14T10:26:17;7.10;;;4.25;;
10335;SDS011;5213;53.548;9.930;2022-08-14T10:28:50;8.45;;;4.50;;
10335;SDS011;5213;53.548;9.930;2022-08-14T10:36:40;5.40;;;4.35;;
10335;SDS011;5213;53.548;9.930;2022-08-14T10:39:07;6.93;;;4.68;;
10335;SDS011;5213;53.548;9.930;2022-08-14T10:41:40;5.82;;;5.07;;
10335;SDS011;5213;53.548;9.930;2022-08-14T10:47:07;4.80;;;4.40;;
10335;SDS011;5213;53.548;9.930;2022-08-14T10:49:31;5.03;;;4.53;;
10335;SDS011;5213;53.548;9.930;2022-08-14T10:51:59;6.05;;;4.53;;
10335;SDS011;5213;53.548;9.930;2022-08-14T10:57:15;5.78;;;4.45;;
10335;SDS011;5213;53.548;9.930;2022-08-14T11:07:26;4.97;;;4.50;;
10335;SDS011;5213;53.548;9.930;2022-08-14T11:09:55;6.22;;;4.75;;
10335;SDS011;5213;53.548;9.930;2022-08-14T11:12:23;8.73;;;4.82;;
10335;SDS011;5213;53.548;9.930;2022-08-14T11:14:51;4.85;;;4.50;;
10335;SDS011;5213;53.548;9.930;2022-08-14T11:17:17;6.25;;;4.68;;
10335;SDS011;5213;53.548;9.930;2022-08-14T11:19:44;5.28;;;4.65;;
10335;SDS011;5213;53.548;9.930;2022-08-14T11:22:10;5.80;;;4.35;;
10335;SDS011;5213;53.548;9.930;2022-08-14T11:24:36;6.93;;;5.05;;
10335;SDS011;5213;53.548;9.930;2022-08-14T11:27:04;5.40;;;4.72;;
10335;SDS011;5213;53.548;9.930;2022-08-14T11:29:30;6.43;;;4.80;;
10335;SDS011;5213;53.548;9.930;2022-08-14T11:31:56;5.35;;;4.57;;
10335;SDS011;5213;53.548;9.930;2022-08-14T11:34:24;6.15;;;4.18;;
10335;SDS011;5213;53.548;9.930;2022-08-14T11:36:51;7.00;;;4.95;;
10335;SDS011;5213;53.548;9.930;2022-08-14T11:39:21;6.38;;;4.95;;
10335;SDS011;5213;53.548;9.930;2022-08-14T11:41:48;4.85;;;4.10;;
10335;SDS011;5213;53.548;9.930;2022-08-14T11:44:14;4.97;;;4.50;;
10335;SDS011;5213;53.548;9.930;2022-08-14T11:46:41;5.40;;;4.28;;
10335;SDS011;5213;53.548;9.930;2022-08-14T11:49:07;5.22;;;4.75;;
10335;SDS011;5213;53.548;9.930;2022-08-14T11:51:34;5.80;;;4.60;;
10335;SDS011;5213;53.548;9.930;2022-08-14T11:54:01;5.95;;;4.28;;
10335;SDS011;5213;53.548;9.930;2022-08-14T11:56:36;5.32;;;4.22;;
10335;SDS011;5213;53.548;9.930;2022-08-14T11:59:05;4.97;;;3.95;;
10335;SDS011;5213;53.548;9.930;2022-08-14T12:01:31;4.90;;;4.13;;
10335;SDS011;5213;53.548;9.930;2022-08-14T12:04:07;4.90;;;4.30;;
10335;SDS011;5213;53.548;9.930;2022-08-14T12:06:42;5.10;;;4.32;;
10335;SDS011;5213;53.548;9.930;2022-08-14T12:09:08;4.50;;;4.10;;
10335;SDS011;5213;53.548;9.930;2022-08-14T12:11:37;5.35;;;4.00;;
10335;SDS011;5213;53.548;9.930;2022-08-14T12:14:07;5.40;;;4.68;;
10335;SDS011;5213;53.548;9.930;2022-08-14T12:16:33;5.22;;;4.72;;
10335;SDS011;5213;53.548;9.930;2022-08-14T12:19:00;5.13;;;4.72;;
10335;SDS011;5213;53.548;9.930;2022-08-14T12:21:26;5.53;;;5.10;;
10335;SDS011;5213;53.548;9.930;2022-08-14T12:23:59;7.55;;;4.85;;
10335;SDS011;5213;53.548;9.930;2022-08-14T12:26:27;5.03;;;4.63;;
10335;SDS011;5213;53.548;9.930;2022-08-14T12:29:06;5.63;;;4.78;;
10335;SDS011;5213;53.548;9.930;2022-08-14T12:31:33;4.90;;;4.32;;
10335;SDS011;5213;53.548;9.930;2022-08-14T12:34:00;9.00;;;4.53;;
10335;SDS011;5213;53.548;9.930;2022-08-14T12:36:27;5.43;;;4.55;;
10335;SDS011;5213;53.548;9.930;2022-08-14T12:38:57;5.75;;;4.60;;
10335;SDS011;5213;53.548;9.930;2022-08-14T12:41:24;7.18;;;4.50;;
10335;SDS011;5213;53.548;9.930;2022-08-14T12:43:51;7.47;;;4.90;;
10335;SDS011;5213;53.548;9.930;2022-08-14T12:48:51;5.20;;;4.70;;
10335;SDS011;5213;53.548;9.930;2022-08-14T12:51:18;5.32;;;4.82;;
10335;SDS011;5213;53.548;9.930;2022-08-14T12:53:45;7.30;;;4.78;;
10335;SDS011;5213;53.548;9.930;2022-08-14T12:56:15;6.20;;;4.70;;
10335;SDS011;5213;53.548;9.930;2022-08-14T12:58:44;5.78;;;4.65;;
10335;SDS011;5213;53.548;9.930;2022-08-14T13:01:17;7.05;;;5.30;;
10335;SDS011;5213;53.548;9.930;2022-08-14T13:03:43;10.60;;;5.57;;
10335;SDS011;5213;53.548;9.930;2022-08-14T13:06:10;7.60;;;5.22;;
10335;SDS011;5213;53.548;9.930;2022-08-14T13:08:37;5.43;;;4.88;;
10335;SDS011;5213;53.548;9.930;2022-08-14T13:11:08;6.25;;;5.47;;
10335;SDS011;5213;53.548;9.930;2022-08-14T13:13:36;6.55;;;5.60;;
10335;SDS011;5213;53.548;9.930;2022-08-14T13:16:03;5.60;;;5.13;;
10335;SDS011;5213;53.548;9.930;2022-08-14T13:18:30;6.68;;;5.22;;
10335;SDS011;5213;53.548;9.930;2022-08-14T13:20:57;6.00;;;5.40;;
10335;SDS011;5213;53.548;9.930;2022-08-14T13:23:25;5.30;;;4.53;;
10335;SDS011;5213;53.548;9.930;2022-08-14T13:25:52;7.53;;;5.20;;
10335;SDS011;5213;53.548;9.930;2022-08-14T13:28:19;5.82;;;5.22;;
10335;SDS011;5213;53.548;9.930;2022-08-14T13:30:51;5.93;;;5.43;;
10335;SDS011;5213;53.548;9.930;2022-08-14T13:33:17;6.03;;;5.40;;
10335;SDS011;5213;53.548;9.930;2022-08-14T13:35:47;6.28;;;5.20;;
10335;SDS011;5213;53.548;9.930;2022-08-14T13:38:19;6.30;;;5.25;;
10335;SDS011;5213;53.548;9.930;2022-08-14T13:40:48;5.50;;;5.00;;
10335;SDS011;5213;53.548;9.930;2022-08-14T13:43:20;5.70;;;5.20;;
10335;SDS011;5213;53.548;9.930;2022-08-14T13:45:46;5.45;;;4.95;;
10335;SDS011;5213;53.548;9.930;2022-08-14T13:48:13;6.35;;;5.18;;
10335;SDS011;5213;53.548;9.930;2022-08-14T13:50:40;14.30;;;5.47;;
10335;SDS011;5213;53.548;9.930;2022-08-14T13:53:09;19.77;;;6.05;;
10335;SDS011;5213;53.548;9.930;2022-08-14T13:55:38;17.42;;;6.22;;
10335;SDS011;5213;53.548;9.930;2022-08-14T13:58:04;20.08;;;6.28;;
10335;SDS011;5213;53.548;9.930;2022-08-14T14:00:34;14.20;;;5.97;;
10335;SDS011;5213;53.548;9.930;2022-08-14T14:03:02;5.90;;;5.45;;
10335;SDS011;5213;53.548;9.930;2022-08-14T14:05:33;8.25;;;5.95;;
10335;SDS011;5213;53.548;9.930;2022-08-14T14:08:01;10.73;;;5.50;;
10335;SDS011;5213;53.548;9.930;2022-08-14T14:10:29;8.55;;;5.97;;
10335;SDS011;5213;53.548;9.930;2022-08-14T14:12:57;6.60;;;5.60;;
10335;SDS011;5213;53.548;9.930;2022-08-14T14:15:23;7.32;;;5.88;;
10335;SDS011;5213;53.548;9.930;2022-08-14T14:17:49;11.00;;;6.07;;
10335;SDS011;5213;53.548;9.930;2022-08-14T14:20:18;11.85;;;6.18;;
10335;SDS011;5213;53.548;9.930;2022-08-14T14:22:48;7.85;;;5.22;;
10335;SDS011;5213;53.548;9.930;2022-08-14T14:25:16;10.13;;;5.40;;
10335;SDS011;5213;53.548;9.930;2022-08-14T14:27:43;8.52;;;5.93;;
10335;SDS011;5213;53.548;9.930;2022-08-14T14:30:10;6.28;;;5.60;;
10335;SDS011;5213;53.548;9.930;2022-08-14T14:32:38;12.10;;;6.10;;
10335;SDS011;5213;53.548;9.930;2022-08-14T14:35:10;9.43;;;6.13;;
10335;SDS011;5213;53.548;9.930;2022-08-14T14:37:40;7.90;;;5.65;;
10335;SDS011;5213;53.548;9.930;2022-08-14T14:40:08;8.73;;;6.20;;
10335;SDS011;5213;53.548;9.930;2022-08-14T14:42:36;11.75;;;5.90;;
10335;SDS011;5213;53.548;9.930;2022-08-14T14:45:10;14.65;;;5.63;;
10335;SDS011;5213;53.548;9.930;2022-08-14T14:47:41;6.93;;;5.57;;
10335;SDS011;5213;53.548;9.930;2022-08-14T14:50:08;16.60;;;6.38;;
10335;SDS011;5213;53.548;9.930;2022-08-14T14:52:35;7.95;;;6.30;;
10335;SDS011;5213;53.548;9.930;2022-08-14T14:55:01;6.82;;;5.80;;
10335;SDS011;5213;53.548;9.930;2022-08-14T14:57:28;7.20;;;6.07;;
10335;SDS011;5213;53.548;9.930;2022-08-14T14:59:54;6.68;;;6.07;;
10335;SDS011;5213;53.548;9.930;2022-08-14T15:02:34;6.10;;;5.60;;
10335;SDS011;5213;53.548;9.930;2022-08-14T15:05:00;8.68;;;6.00;;
10335;SDS011;5213;53.548;9.930;2022-08-14T15:07:27;7.93;;;5.50;;
10335;SDS011;5213;53.548;9.930;2022-08-14T15:09:53;7.90;;;5.82;;
10335;SDS011;5213;53.548;9.930;2022-08-14T15:12:19;6.78;;;5.82;;
10335;SDS011;5213;53.548;9.930;2022-08-14T15:14:45;9.95;;;6.22;;
10335;SDS011;5213;53.548;9.930;2022-08-14T15:17:11;9.77;;;5.03;;
10335;SDS011;5213;53.548;9.930;2022-08-14T15:19:37;5.72;;;5.13;;
10335;SDS011;5213;53.548;9.930;2022-08-14T15:22:04;6.57;;;5.00;;
10335;SDS011;5213;53.548;9.930;2022-08-14T15:24:30;6.50;;;5.47;;
10335;SDS011;5213;53.548;9.930;2022-08-14T15:26:56;8.23;;;5.07;;
10335;SDS011;5213;53.548;9.930;2022-08-14T15:29:23;7.85;;;5.28;;
10335;SDS011;5213;53.548;9.930;2022-08-14T15:31:50;6.07;;;5.43;;
10335;SDS011;5213;53.548;9.930;2022-08-14T15:34:16;8.95;;;6.32;;
10335;SDS011;5213;53.548;9.930;2022-08-14T15:36:44;9.10;;;5.68;;